McBride, Missouri
Current Conditions -  °F | °C
As of 3:35 AM on Friday 24 Oct 2014 (Local Time) from KSAR Reporting Station
Overcast Overcast  
Wind Chill: 51°   Ceiling: 3900
Heat Index: 51°   Visibility: 10mi
Dew Point: 46°   Wind: 3mph
Humidity: 84%   Direction: 200°SSW
Pressure: 30.1"   Gusts: NA
Location:  37.83°N, 89.84°W
Report Text: KSAR 240835Z AUTO 20003KT 10SM SCT028 BKN039 OVC070 11/08 A3010 RMK AO2 T01060080
Loading
Personal Weather Stations






























Interactive Weather Map New forecast layout! Learn more

10-Day Weather Forecast

Advertisements
Track Severe Weather on mobile